Time;durP1;ratioP1;P1;durP2;ratioP2;P2;SDS_P1;SDS_P2;PMS_P1;PMS_P2;Temp;Humidity;BMP_temperature;BMP_pressure;BME280_temperature;BME280_humidity;BME280_pressure;Samples;Min_cycle;Max_cycle;Signal;HPM_P1;HPM_P2
2021/10/02 00:31:18;;;;;;;5.67;4.00;;;12.00;99.90;;;;;;5098543;28;20443;-67
2021/10/02 00:34:10;;;;;;;5.30;4.00;;;12.00;99.90;;;;;;5099032;28;20942;-67
2021/10/02 00:37:19;;;;;;;4.17;3.80;;;12.00;99.90;;;;;;5099120;28;20537;-66
2021/10/02 00:45:16;;;;;;;5.00;4.50;;;12.10;99.90;;;;;;5098051;28;20431;-67
2021/10/02 00:47:43;;;;;;;3.83;3.43;;;12.00;99.90;;;;;;5098596;28;20513;-68
2021/10/02 00:50:10;;;;;;;6.37;3.80;;;12.10;99.90;;;;;;5098574;28;20742;-69
2021/10/02 00:52:39;;;;;;;3.90;3.60;;;12.10;99.90;;;;;;5098118;28;20506;-68
2021/10/02 00:55:06;;;;;;;6.10;3.57;;;12.10;99.90;;;;;;5098399;28;20854;-69
2021/10/02 00:57:33;;;;;;;5.93;3.90;;;12.10;99.90;;;;;;5098357;28;20493;-68
2021/10/02 01:00:03;;;;;;;4.50;4.10;;;12.20;99.90;;;;;;5098207;28;20435;-68
2021/10/02 01:02:38;;;;;;;4.33;3.93;;;12.20;99.90;;;;;;5125668;27;20483;-69
2021/10/02 01:05:35;;;;;;;4.40;3.13;;;12.20;99.90;;;;;;5139265;27;20507;-70
2021/10/02 01:08:15;;;;;;;5.70;4.20;;;12.10;99.90;;;;;;5136495;27;20486;-70
2021/10/02 01:10:50;;;;;;;3.97;3.10;;;12.10;99.90;;;;;;5139105;27;20429;-70
2021/10/02 01:13:23;;;;;;;3.30;3.00;;;12.20;99.90;;;;;;5139199;27;20511;-70
2021/10/02 01:15:55;;;;;;;4.77;3.43;;;12.20;99.90;;;;;;5138438;27;20451;-71
2021/10/02 01:18:29;;;;;;;3.83;3.50;;;12.20;99.90;;;;;;5139013;27;20458;-70
2021/10/02 01:21:16;;;;;;;5.73;3.20;;;12.20;99.90;;;;;;5138928;27;20803;-70
2021/10/02 01:23:56;;;;;;;3.70;3.30;;;12.30;99.90;;;;;;5139198;27;20931;-70
2021/10/02 01:26:45;;;;;;;3.20;2.90;;;12.30;99.90;;;;;;5138342;27;20515;-70
2021/10/02 01:29:19;;;;;;;4.37;3.47;;;12.20;99.90;;;;;;5138792;27;20808;-70
2021/10/02 01:31:57;;;;;;;5.33;3.23;;;12.20;99.90;;;;;;5138724;27;20459;-71
2021/10/02 01:34:31;;;;;;;3.63;3.30;;;12.20;99.90;;;;;;5138542;27;20490;-70
2021/10/02 01:37:08;;;;;;;4.00;3.20;;;12.30;99.90;;;;;;5138547;27;20899;-70
2021/10/02 01:47:59;;;;;;;4.03;3.27;;;12.20;99.90;;;;;;5137703;27;20790;-73
2021/10/02 01:50:28;;;;;;;4.97;3.60;;;12.20;99.90;;;;;;5138360;27;20450;-73
2021/10/02 01:52:57;;;;;;;6.30;3.87;;;12.20;99.90;;;;;;5138147;27;20455;-72
2021/10/02 01:55:25;;;;;;;4.10;3.40;;;12.30;99.90;;;;;;5138353;27;20841;-71
2021/10/02 01:57:57;;;;;;;4.63;3.60;;;12.20;99.90;;;;;;5137706;27;20490;-70
2021/10/02 02:00:27;;;;;;;5.73;3.70;;;12.20;99.90;;;;;;5138636;27;20430;-69
2021/10/02 02:03:00;;;;;;;4.07;3.70;;;12.20;99.90;;;;;;5137530;27;20787;-70
2021/10/02 02:05:30;;;;;;;3.73;3.33;;;12.30;99.90;;;;;;5138285;27;20465;-71
2021/10/02 02:08:01;;;;;;;4.20;3.80;;;12.20;99.90;;;;;;5132922;27;20927;-71
2021/10/02 02:10:29;;;;;;;3.97;3.57;;;12.30;99.90;;;;;;5127573;27;20464;-69
2021/10/02 02:13:00;;;;;;;4.73;4.33;;;12.30;99.90;;;;;;5131604;27;20459;-70
2021/10/02 02:15:31;;;;;;;4.80;4.40;;;12.30;99.90;;;;;;5136901;27;20959;-69
2021/10/02 02:18:02;;;;;;;4.30;4.00;;;12.30;99.90;;;;;;5126153;28;20516;-69
2021/10/02 02:20:32;;;;;;;3.57;3.27;;;12.30;99.90;;;;;;5136858;28;20495;-70
2021/10/02 02:22:59;;;;;;;4.00;3.70;;;12.30;99.90;;;;;;5135631;28;20494;-70
2021/10/02 02:25:28;;;;;;;4.00;3.70;;;12.30;99.90;;;;;;5133830;28;20451;-69
2021/10/02 02:27:56;;;;;;;5.17;4.67;;;12.30;99.90;;;;;;5135447;28;20462;-69
2021/10/02 02:30:24;;;;;;;4.87;4.40;;;12.40;99.90;;;;;;5136216;28;20877;-69
2021/10/02 02:32:53;;;;;;;5.10;4.67;;;12.30;99.90;;;;;;5136007;28;20489;-70
2021/10/02 02:35:21;;;;;;;4.33;3.83;;;12.30;99.90;;;;;;5136431;28;20543;-69
2021/10/02 02:37:48;;;;;;;5.03;4.63;;;12.40;99.90;;;;;;5136445;28;20920;-69
2021/10/02 02:40:16;;;;;;;5.50;5.00;;;12.40;99.90;;;;;;5136189;28;20498;-69
2021/10/02 02:42:43;;;;;;;5.90;4.80;;;12.40;99.90;;;;;;5136014;28;20512;-69
2021/10/02 02:45:12;;;;;;;5.93;5.37;;;12.40;99.90;;;;;;5136562;28;20539;-69
2021/10/02 02:47:54;;;;;;;6.07;5.10;;;12.40;99.90;;;;;;5136642;28;20808;-69
2021/10/02 02:50:28;;;;;;;6.43;5.87;;;12.40;99.90;;;;;;5135429;28;20511;-68
2021/10/02 02:53:01;;;;;;;6.70;5.40;;;12.40;99.90;;;;;;5136295;28;20948;-69
2021/10/02 02:55:33;;;;;;;5.23;4.73;;;12.40;99.90;;;;;;5135667;27;20482;-68
2021/10/02 02:58:04;;;;;;;7.93;5.10;;;12.30;99.90;;;;;;5140089;27;20589;-67
2021/10/02 03:00:42;;;;;;;6.33;5.47;;;12.40;99.90;;;;;;5138373;27;20483;-68
2021/10/02 03:03:12;;;;;;;5.70;5.20;;;12.40;99.90;;;;;;5137857;27;20488;-67
2021/10/02 03:05:40;;;;;;;5.00;4.50;;;12.40;99.90;;;;;;5139905;27;20507;-67
2021/10/02 03:08:11;;;;;;;5.67;5.17;;;12.40;99.90;;;;;;5139900;27;20548;-67
2021/10/02 03:10:51;;;;;;;5.40;4.83;;;12.40;99.90;;;;;;5139836;27;20486;-67
2021/10/02 03:13:23;;;;;;;5.97;5.40;;;12.40;99.90;;;;;;5139901;27;20451;-67
2021/10/02 03:15:51;;;;;;;5.50;5.00;;;12.40;99.90;;;;;;5137918;27;20918;-67
2021/10/02 03:18:20;;;;;;;5.17;4.30;;;12.50;99.90;;;;;;5139288;27;20486;-67
2021/10/02 03:20:50;;;;;;;5.10;4.70;;;12.40;99.90;;;;;;5140011;27;20486;-67
2021/10/02 03:23:19;;;;;;;5.20;4.70;;;12.50;99.90;;;;;;5140118;27;20810;-67
2021/10/02 03:25:48;;;;;;;5.70;4.80;;;12.50;99.90;;;;;;5139541;27;20453;-67
2021/10/02 03:28:15;;;;;;;5.40;4.90;;;12.50;99.90;;;;;;5136089;27;20454;-67
2021/10/02 03:30:43;;;;;;;6.37;5.70;;;12.50;99.90;;;;;;5139505;27;20551;-67
2021/10/02 03:33:10;;;;;;;4.90;4.40;;;12.50;99.90;;;;;;5139360;27;20451;-67
2021/10/02 03:35:39;;;;;;;5.13;4.67;;;12.50;99.90;;;;;;5136929;27;20506;-66
2021/10/02 03:38:06;;;;;;;6.53;4.73;;;12.50;99.90;;;;;;5139505;27;20486;-66
2021/10/02 03:40:33;;;;;;;6.70;6.10;;;12.50;99.90;;;;;;5139321;27;20507;-66
2021/10/02 03:43:01;;;;;;;5.77;5.27;;;12.50;99.90;;;;;;5139502;27;20526;-66
2021/10/02 03:45:36;;;;;;;5.80;5.30;;;12.50;99.90;;;;;;5139302;27;20478;-67
2021/10/02 03:48:04;;;;;;;5.07;4.57;;;12.50;99.90;;;;;;5123114;27;20466;-65
2021/10/02 03:50:31;;;;;;;6.57;5.63;;;12.40;99.90;;;;;;5140680;27;20468;-66
2021/10/02 03:53:00;;;;;;;5.27;4.77;;;12.40;99.90;;;;;;5140547;27;20458;-66
2021/10/02 03:55:27;;;;;;;7.00;4.90;;;12.50;99.90;;;;;;5139440;27;20518;-66
2021/10/02 03:57:54;;;;;;;5.20;4.53;;;12.40;99.90;;;;;;5139134;27;20527;-65
2021/10/02 04:00:23;;;;;;;5.83;5.23;;;12.40;99.90;;;;;;5139491;27;20465;-65
2021/10/02 04:02:50;;;;;;;7.57;5.07;;;12.40;99.90;;;;;;5139546;27;20452;-66
2021/10/02 04:05:18;;;;;;;5.97;5.47;;;12.40;99.90;;;;;;5139581;27;20813;-66
2021/10/02 04:07:45;;;;;;;6.90;5.90;;;12.40;99.90;;;;;;5138910;27;20466;-66
2021/10/02 04:10:13;;;;;;;6.03;5.53;;;12.40;99.90;;;;;;5134565;27;20459;-65
2021/10/02 04:12:40;;;;;;;5.97;5.10;;;12.50;99.90;;;;;;5140602;27;20454;-65
2021/10/02 04:15:09;;;;;;;6.00;5.47;;;12.40;99.90;;;;;;5140241;27;20579;-65
2021/10/02 04:17:37;;;;;;;6.40;5.90;;;12.40;99.90;;;;;;5140232;27;20455;-65
2021/10/02 04:20:05;;;;;;;5.93;5.33;;;12.40;99.90;;;;;;5140087;27;20933;-65
2021/10/02 04:22:33;;;;;;;6.10;5.50;;;12.40;99.90;;;;;;5139838;27;20486;-65
2021/10/02 04:25:00;;;;;;;7.57;6.90;;;12.40;99.90;;;;;;5139880;27;20507;-64
2021/10/02 04:27:28;;;;;;;6.43;5.60;;;12.40;99.90;;;;;;5140001;27;20487;-65
2021/10/02 04:29:55;;;;;;;6.37;5.80;;;12.40;99.90;;;;;;5139584;27;20494;-65
2021/10/02 04:32:22;;;;;;;5.67;5.17;;;12.40;99.90;;;;;;5139983;27;20459;-65
2021/10/02 04:34:49;;;;;;;5.83;5.20;;;12.40;99.90;;;;;;5139255;27;20493;-65
2021/10/02 04:37:16;;;;;;;5.73;5.13;;;12.40;99.90;;;;;;5139856;27;20503;-65
2021/10/02 04:39:43;;;;;;;5.07;4.60;;;12.40;99.90;;;;;;5139727;27;20764;-65
2021/10/02 04:42:15;;;;;;;6.43;5.77;;;12.40;99.90;;;;;;5139517;27;20586;-65
2021/10/02 04:44:46;;;;;;;6.23;5.63;;;12.40;99.90;;;;;;5139503;27;20538;-64
2021/10/02 04:47:13;;;;;;;7.00;6.00;;;12.40;99.90;;;;;;5139647;27;20483;-65
2021/10/02 04:49:40;;;;;;;6.53;5.70;;;12.40;99.90;;;;;;5139466;27;20741;-65
2021/10/02 04:52:07;;;;;;;5.83;5.43;;;12.40;99.90;;;;;;5139295;27;20454;-65
2021/10/02 04:54:37;;;;;;;6.20;5.60;;;12.40;99.90;;;;;;5138999;27;20490;-65
2021/10/02 04:57:04;;;;;;;6.80;5.60;;;12.40;99.90;;;;;;5139392;27;20494;-65
2021/10/02 04:59:31;;;;;;;6.90;6.30;;;12.40;99.90;;;;;;5139281;27;20459;-65
2021/10/02 05:01:59;;;;;;;6.10;5.47;;;12.40;99.90;;;;;;5137899;27;20486;-65
2021/10/02 05:04:29;;;;;;;6.30;5.70;;;12.40;99.90;;;;;;5137099;27;20488;-65
2021/10/02 05:06:56;;;;;;;5.77;5.20;;;12.40;99.90;;;;;;5137899;27;20462;-65
2021/10/02 05:09:23;;;;;;;7.87;5.43;;;12.40;99.90;;;;;;5137534;27;20914;-65
2021/10/02 05:11:50;;;;;;;6.37;5.77;;;12.40;99.90;;;;;;5122454;27;20459;-65
2021/10/02 05:14:17;;;;;;;5.70;5.20;;;12.40;99.90;;;;;;5137885;27;20449;-65
2021/10/02 05:16:44;;;;;;;5.67;4.90;;;12.40;99.90;;;;;;5138374;27;20464;-65
2021/10/02 05:19:12;;;;;;;5.70;5.20;;;12.40;99.90;;;;;;5137770;27;20462;-65
2021/10/02 05:21:39;;;;;;;5.33;4.83;;;12.40;99.90;;;;;;5138508;27;20429;-65
2021/10/02 05:24:06;;;;;;;5.00;4.17;;;12.40;99.90;;;;;;5138657;27;20869;-65
2021/10/02 05:26:33;;;;;;;5.70;4.60;;;12.40;99.90;;;;;;5138621;27;20558;-64
2021/10/02 05:29:00;;;;;;;6.07;5.57;;;12.40;99.90;;;;;;5139145;27;20455;-64
2021/10/02 05:31:27;;;;;;;5.17;4.67;;;12.40;99.90;;;;;;5138669;27;20455;-64
2021/10/02 05:33:57;;;;;;;4.80;4.40;;;12.40;99.90;;;;;;5138132;27;20469;-65
2021/10/02 05:36:25;;;;;;;5.53;4.50;;;12.40;99.90;;;;;;5138411;27;20495;-64
2021/10/02 05:38:52;;;;;;;4.53;4.20;;;12.40;99.90;;;;;;5138810;27;20548;-64
2021/10/02 05:41:19;;;;;;;4.67;4.27;;;12.50;99.90;;;;;;5138644;27;20833;-64
2021/10/02 05:43:46;;;;;;;4.67;4.27;;;12.50;99.90;;;;;;5138549;27;20458;-65
2021/10/02 05:46:16;;;;;;;4.53;4.23;;;12.40;99.90;;;;;;5138053;27;20519;-65
2021/10/02 05:48:45;;;;;;;5.00;4.60;;;12.40;99.90;;;;;;5138341;27;20827;-65
2021/10/02 05:51:12;;;;;;;4.00;3.70;;;12.40;99.90;;;;;;5138375;27;20828;-65
2021/10/02 05:53:40;;;;;;;4.43;4.03;;;12.40;99.90;;;;;;5138538;27;20489;-65
2021/10/02 05:56:08;;;;;;;4.60;4.00;;;12.40;99.90;;;;;;5138519;27;20522;-65
2021/10/02 05:58:34;;;;;;;5.13;3.80;;;12.40;99.90;;;;;;5138206;27;20493;-65
2021/10/02 06:01:02;;;;;;;4.20;3.83;;;12.40;99.90;;;;;;5138174;27;20467;-65
2021/10/02 06:03:30;;;;;;;3.30;3.03;;;12.40;99.90;;;;;;5138212;27;20469;-65
2021/10/02 06:06:00;;;;;;;3.87;3.57;;;12.40;99.90;;;;;;5138055;27;20461;-65
2021/10/02 06:08:35;;;;;;;4.83;3.10;;;12.40;99.90;;;;;;5138088;27;20458;-65
2021/10/02 06:11:03;;;;;;;4.10;3.70;;;12.40;99.90;;;;;;5133703;27;20464;-65
2021/10/02 06:13:32;;;;;;;4.20;3.90;;;12.50;99.90;;;;;;5138083;27;20502;-65
2021/10/02 06:16:00;;;;;;;3.60;3.30;;;12.40;99.90;;;;;;5137715;27;20490;-64
2021/10/02 06:18:27;;;;;;;3.90;3.60;;;12.40;99.90;;;;;;5138102;27;20526;-64
2021/10/02 06:20:55;;;;;;;4.13;3.73;;;12.40;99.90;;;;;;5137761;28;20491;-64
2021/10/02 06:23:26;;;;;;;4.07;3.77;;;12.40;99.90;;;;;;5138143;28;20458;-64
2021/10/02 06:25:53;;;;;;;4.33;3.93;;;12.40;99.90;;;;;;5137124;28;20512;-64
2021/10/02 06:28:22;;;;;;;3.77;3.47;;;12.50;99.90;;;;;;5137775;28;20462;-64
2021/10/02 06:30:49;;;;;;;3.63;3.10;;;12.50;99.90;;;;;;5140489;27;20497;-64
2021/10/02 06:33:16;;;;;;;3.90;3.20;;;12.50;99.90;;;;;;5142195;27;20462;-64
2021/10/02 06:35:43;;;;;;;4.07;3.13;;;12.50;99.90;;;;;;5142092;27;20539;-63
2021/10/02 06:38:16;;;;;;;3.07;2.77;;;12.60;99.90;;;;;;5141771;27;20458;-64
2021/10/02 06:40:47;;;;;;;4.00;3.53;;;12.60;99.90;;;;;;5141552;27;20462;-64
2021/10/02 06:43:15;;;;;;;4.73;3.20;;;12.60;99.90;;;;;;5140602;27;20519;-64
2021/10/02 06:45:46;;;;;;;4.30;3.80;;;12.70;99.90;;;;;;5140520;27;20479;-64
2021/10/02 06:48:13;;;;;;;5.40;3.80;;;12.70;99.90;;;;;;5137932;27;20490;-64
2021/10/02 06:50:40;;;;;;;4.50;3.93;;;12.70;99.90;;;;;;5134278;27;20574;-64
2021/10/02 06:53:07;;;;;;;3.60;3.30;;;12.70;99.90;;;;;;5141017;27;20521;-64
2021/10/02 06:55:35;;;;;;;3.53;3.23;;;12.80;99.90;;;;;;5141619;27;20485;-64
2021/10/02 06:58:02;;;;;;;3.80;3.10;;;12.90;99.90;;;;;;5141263;27;20462;-64
2021/10/02 07:00:29;;;;;;;4.23;3.30;;;13.00;99.90;;;;;;5141625;27;20455;-64
2021/10/02 07:02:58;;;;;;;16.50;14.40;;;12.90;99.90;;;;;;5141388;27;20932;-63
2021/10/02 07:05:28;;;;;;;6.97;6.27;;;12.90;99.90;;;;;;5141418;27;20877;-63
2021/10/02 07:07:55;;;;;;;5.27;4.77;;;13.00;99.90;;;;;;5141390;27;20466;-63
2021/10/02 07:10:25;;;;;;;14.50;13.30;;;13.00;99.90;;;;;;5131715;27;20463;-63
2021/10/02 07:12:54;;;;;;;5.17;4.13;;;13.10;99.90;;;;;;5136982;27;20456;-64
2021/10/02 07:15:22;;;;;;;6.90;5.90;;;13.20;99.90;;;;;;5140962;27;20490;-64
2021/10/02 07:17:48;;;;;;;5.83;5.30;;;13.40;99.90;;;;;;5141297;27;20454;-65
2021/10/02 07:20:17;;;;;;;4.17;3.60;;;13.40;99.90;;;;;;5140455;27;20772;-63
2021/10/02 07:22:45;;;;;;;5.70;5.10;;;13.30;99.90;;;;;;5141064;27;20781;-63
2021/10/02 07:25:16;;;;;;;4.40;3.57;;;13.40;99.90;;;;;;5140190;27;20507;-63
2021/10/02 07:27:44;;;;;;;5.87;4.50;;;13.50;99.90;;;;;;5138919;27;20437;-63
2021/10/02 07:30:15;;;;;;;3.70;2.77;;;13.60;99.90;;;;;;5139590;27;20900;-63
2021/10/02 07:32:43;;;;;;;5.37;4.87;;;13.70;99.90;;;;;;5139592;27;20490;-63
2021/10/02 07:35:14;;;;;;;10.93;9.77;;;13.80;99.90;;;;;;5139980;27;20459;-63
2021/10/02 07:37:49;;;;;;;4.30;3.90;;;13.90;99.90;;;;;;5139820;27;20459;-63
2021/10/02 07:40:16;;;;;;;5.30;4.80;;;13.90;99.90;;;;;;5138838;27;20465;-63
2021/10/02 07:42:52;;;;;;;4.27;3.20;;;13.90;99.90;;;;;;5138641;27;20462;-63
2021/10/02 07:45:22;;;;;;;3.73;3.43;;;13.90;99.90;;;;;;5137740;27;20496;-63
2021/10/02 07:47:51;;;;;;;4.63;3.47;;;13.80;99.90;;;;;;5138502;27;20462;-63
2021/10/02 07:50:19;;;;;;;6.03;5.43;;;13.70;99.90;;;;;;5136874;27;20461;-63
2021/10/02 07:52:50;;;;;;;9.27;5.50;;;13.60;99.90;;;;;;5138812;27;20977;-63
2021/10/02 07:55:17;;;;;;;6.13;5.57;;;13.70;99.90;;;;;;5134537;27;20457;-63
2021/10/02 07:57:46;;;;;;;7.47;6.00;;;13.70;99.90;;;;;;5138092;27;20546;-63
2021/10/02 08:00:16;;;;;;;14.27;11.40;;;13.80;99.90;;;;;;5138616;27;20451;-63
2021/10/02 08:02:45;;;;;;;5.60;5.00;;;13.80;99.90;;;;;;5138785;27;20540;-63
2021/10/02 08:05:12;;;;;;;4.50;3.57;;;13.70;99.90;;;;;;5138342;27;20454;-63
2021/10/02 08:07:41;;;;;;;12.77;9.60;;;13.70;99.90;;;;;;5138621;27;20500;-63
2021/10/02 08:10:11;;;;;;;18.20;12.30;;;13.70;99.90;;;;;;5138585;27;20454;-63
2021/10/02 08:12:41;;;;;;;19.90;11.43;;;13.80;99.90;;;;;;5136360;27;20491;-63
2021/10/02 08:15:09;;;;;;;7.60;6.20;;;13.70;99.90;;;;;;5139389;27;20425;-64
2021/10/02 08:17:38;;;;;;;6.97;5.60;;;13.80;99.90;;;;;;5136179;27;20487;-66
2021/10/02 08:20:10;;;;;;;9.27;7.20;;;13.80;99.90;;;;;;5138166;27;20458;-64
2021/10/02 08:22:39;;;;;;;5.00;4.30;;;13.80;99.90;;;;;;5135843;27;20515;-64
2021/10/02 08:25:09;;;;;;;4.80;4.33;;;13.60;99.90;;;;;;5138093;27;20944;-64
2021/10/02 08:27:38;;;;;;;4.63;3.97;;;13.70;99.90;;;;;;5136437;27;20515;-66
2021/10/02 08:30:09;;;;;;;4.33;3.73;;;13.80;99.90;;;;;;5138247;27;20459;-63
2021/10/02 08:32:42;;;;;;;4.60;4.20;;;13.70;99.90;;;;;;5135854;27;20462;-63
2021/10/02 08:35:11;;;;;;;4.93;4.43;;;13.70;99.90;;;;;;5138718;27;20455;-63
2021/10/02 08:37:39;;;;;;;4.60;4.20;;;13.70;99.90;;;;;;5136495;27;20479;-64
2021/10/02 08:40:11;;;;;;;5.27;4.70;;;13.80;99.90;;;;;;5138355;27;20429;-63
2021/10/02 08:42:39;;;;;;;21.43;17.20;;;13.90;99.90;;;;;;5138237;27;20469;-63
2021/10/02 08:45:07;;;;;;;15.20;12.37;;;14.00;99.90;;;;;;5138675;27;20511;-63
2021/10/02 08:47:42;;;;;;;19.03;17.40;;;14.10;99.90;;;;;;5138226;27;20454;-63
2021/10/02 08:50:11;;;;;;;6.03;4.80;;;14.30;99.90;;;;;;5138240;27;20458;-63
2021/10/02 08:52:40;;;;;;;5.10;3.50;;;14.40;99.90;;;;;;5135958;27;20944;-63
2021/10/02 08:55:10;;;;;;;3.90;3.60;;;14.50;99.90;;;;;;5138236;27;20511;-62
2021/10/02 08:57:38;;;;;;;4.30;3.90;;;14.60;99.90;;;;;;5135596;27;20478;-62
2021/10/02 09:00:08;;;;;;;4.97;3.43;;;14.70;99.90;;;;;;5138426;27;20482;-63
2021/10/02 09:02:35;;;;;;;4.93;4.37;;;14.70;99.90;;;;;;5135033;27;20550;-62
2021/10/02 09:05:06;;;;;;;4.40;4.00;;;14.60;99.90;;;;;;5138022;27;20517;-62
2021/10/02 09:07:33;;;;;;;4.00;3.60;;;14.70;99.90;;;;;;5137691;27;20454;-62
2021/10/02 09:10:03;;;;;;;7.10;4.87;;;14.50;99.90;;;;;;5137780;27;20816;-62
2021/10/02 09:12:34;;;;;;;4.80;4.30;;;14.50;99.90;;;;;;5138884;27;20745;-61
2021/10/02 09:15:02;;;;;;;6.47;4.63;;;14.40;99.90;;;;;;5138735;27;20726;-62
2021/10/02 09:17:30;;;;;;;4.53;3.50;;;14.40;99.90;;;;;;5138900;27;20493;-62
2021/10/02 09:20:00;;;;;;;5.83;5.33;;;14.40;99.90;;;;;;5138204;27;20490;-61
2021/10/02 09:22:28;;;;;;;5.43;4.13;;;14.40;99.90;;;;;;5137255;27;20474;-61
2021/10/02 09:24:56;;;;;;;4.20;3.67;;;14.30;99.90;;;;;;5138766;27;20463;-61
2021/10/02 09:27:26;;;;;;;4.70;3.50;;;14.40;99.90;;;;;;5138953;27;20429;-61
2021/10/02 09:29:56;;;;;;;4.17;3.77;;;14.40;99.90;;;;;;5138950;27;20465;-61
2021/10/02 09:32:28;;;;;;;4.23;3.80;;;14.50;99.90;;;;;;5138528;27;21122;-59
2021/10/02 09:35:01;;;;;;;3.73;3.43;;;14.60;99.90;;;;;;5138628;27;20942;-60
2021/10/02 09:37:31;;;;;;;4.80;4.40;;;14.80;99.90;;;;;;5137159;27;20502;-61
2021/10/02 09:40:01;;;;;;;4.80;4.20;;;14.90;99.90;;;;;;5138264;27;20458;-61
2021/10/02 09:42:37;;;;;;;4.43;4.00;;;15.10;99.90;;;;;;5137618;27;20458;-61
2021/10/02 09:45:08;;;;;;;4.73;4.27;;;15.20;99.90;;;;;;5138577;27;20492;-61
2021/10/02 09:47:37;;;;;;;4.73;4.33;;;15.40;99.90;;;;;;5138475;27;20877;-61
2021/10/02 09:50:11;;;;;;;3.97;3.10;;;15.30;99.90;;;;;;5138028;27;20444;-60
2021/10/02 09:52:40;;;;;;;3.57;3.27;;;15.30;99.90;;;;;;5137955;27;20554;-63
2021/10/02 09:55:26;;;;;;;4.30;3.90;;;15.10;99.90;;;;;;5138585;27;20785;-60
2021/10/02 09:57:55;;;;;;;9.17;8.20;;;15.00;99.90;;;;;;5138288;27;20777;-60
2021/10/02 10:00:26;;;;;;;7.17;6.47;;;14.90;99.90;;;;;;5138062;27;20454;-59
2021/10/02 10:03:03;;;;;;;9.13;6.80;;;15.00;99.90;;;;;;5137982;27;20487;-59
2021/10/02 10:05:33;;;;;;;9.17;7.37;;;15.00;99.90;;;;;;5137473;27;20537;-60
2021/10/02 10:08:05;;;;;;;4.83;4.33;;;15.10;99.90;;;;;;5137805;27;20455;-59
2021/10/02 10:10:36;;;;;;;31.90;21.30;;;15.10;99.90;;;;;;5137582;27;20531;-57
2021/10/02 10:13:12;;;;;;;26.90;18.83;;;15.20;99.90;;;;;;5137859;27;20486;-62
2021/10/02 10:15:45;;;;;;;20.40;13.40;;;15.30;99.90;;;;;;5137163;27;20458;-60
2021/10/02 10:18:14;;;;;;;19.60;14.00;;;15.40;99.90;;;;;;5137828;27;20543;-59
2021/10/02 10:20:49;;;;;;;5.00;4.23;;;15.40;99.90;;;;;;5132267;28;20458;-59
2021/10/02 10:23:16;;;;;;;14.17;9.13;;;15.50;99.90;;;;;;5136309;28;20502;-59
2021/10/02 10:25:52;;;;;;;4.70;3.77;;;15.50;99.90;;;;;;5128445;28;20567;-58
2021/10/02 10:28:24;;;;;;;38.87;22.97;;;15.80;99.90;;;;;;5125806;28;20508;-61
2021/10/02 10:30:55;;;;;;;5.50;4.07;;;16.00;99.90;;;;;;5126875;28;20467;-59
2021/10/02 10:33:32;;;;;;;37.23;25.93;;;16.10;99.90;;;;;;5136640;28;20465;-60
2021/10/02 10:36:07;;;;;;;18.20;12.70;;;16.20;99.90;;;;;;5136631;28;20528;-60
2021/10/02 10:38:35;;;;;;;21.43;12.97;;;16.30;99.90;;;;;;5128909;28;20991;-58
2021/10/02 10:41:03;;;;;;;16.00;12.33;;;16.30;99.90;;;;;;5135398;28;20462;-60
2021/10/02 10:43:31;;;;;;;8.97;6.40;;;16.20;99.90;;;;;;5135516;28;20543;-59
2021/10/02 10:46:01;;;;;;;4.83;3.37;;;15.90;98.80;;;;;;5134088;28;20889;-59
2021/10/02 10:48:31;;;;;;;4.00;3.50;;;15.70;99.90;;;;;;5137092;28;20486;-60
2021/10/02 10:51:02;;;;;;;4.90;4.03;;;15.50;99.90;;;;;;5137717;28;20488;-59
2021/10/02 10:53:35;;;;;;;4.03;3.20;;;15.40;99.90;;;;;;5128967;28;20462;-60
2021/10/02 10:56:03;;;;;;;4.37;3.87;;;15.50;99.90;;;;;;5129023;28;20534;-62
2021/10/02 10:58:32;;;;;;;7.30;4.23;;;15.70;99.90;;;;;;5131855;28;20579;-60
2021/10/02 11:01:05;;;;;;;4.23;3.77;;;16.10;99.90;;;;;;5130947;28;20814;-60
2021/10/02 11:03:36;;;;;;;4.83;3.77;;;16.50;99.90;;;;;;5128218;28;20487;-59
2021/10/02 11:06:04;;;;;;;5.23;3.57;;;16.60;37.70;;;;;;5133257;28;20466;-59
2021/10/02 11:08:57;;;;;;;3.97;3.60;;;16.80;40.30;;;;;;5135097;28;20833;-61
2021/10/02 11:11:56;;;;;;;3.50;2.90;;;16.90;6.50;;;;;;5120063;28;20546;-58
2021/10/02 11:14:26;;;;;;;3.80;2.70;;;17.30;1.00;;;;;;5137030;28;20455;-59
2021/10/02 11:17:05;;;;;;;3.13;2.83;;;17.40;1.00;;;;;;5139621;27;20531;-57
2021/10/02 11:19:37;;;;;;;4.00;3.40;;;17.40;1.00;;;;;;5141638;27;20745;-60
2021/10/02 11:22:30;;;;;;;3.47;2.60;;;17.10;1.00;;;;;;5141411;27;20462;-60
2021/10/02 11:25:01;;;;;;;3.10;2.80;;;16.80;1.00;;;;;;5139771;27;20545;-60
2021/10/02 11:27:29;;;;;;;3.60;3.20;;;16.50;14.70;;;;;;5139785;27;20454;-62
2021/10/02 11:30:11;;;;;;;3.83;3.10;;;16.50;61.20;;;;;;5140252;27;20486;-60
2021/10/02 11:32:43;;;;;;;7.80;4.47;;;16.40;50.00;;;;;;5140616;27;20936;-57
2021/10/02 11:35:22;;;;;;;3.10;2.70;;;16.50;94.90;;;;;;5140282;27;20433;-59
2021/10/02 11:37:54;;;;;;;4.60;3.10;;;17.10;54.20;;;;;;5140666;27;20954;-61
2021/10/02 11:40:48;;;;;;;2.80;2.50;;;17.60;1.00;;;;;;5140951;27;20466;-59
2021/10/02 11:43:28;;;;;;;3.37;3.07;;;17.80;1.00;;;;;;5140855;27;20481;-59
2021/10/02 11:46:06;;;;;;;4.13;2.90;;;18.00;1.00;;;;;;5140143;27;20483;-58
2021/10/02 11:48:49;;;;;;;3.07;2.70;;;17.90;1.00;;;;;;5140616;27;20446;-59
2021/10/02 11:51:25;;;;;;;3.67;2.73;;;18.00;1.00;;;;;;5140134;27;20482;-58
2021/10/02 11:53:55;;;;;;;3.00;2.30;;;18.00;1.00;;;;;;5140388;27;20531;-57
2021/10/02 11:56:27;;;;;;;2.47;2.27;;;17.80;1.00;;;;;;5140218;27;20507;-57
2021/10/02 11:58:56;;;;;;;2.50;2.27;;;17.50;1.00;;;;;;5140546;27;20803;-60
2021/10/02 12:01:25;;;;;;;2.90;2.57;;;17.40;1.00;;;;;;5140439;27;20531;-58
2021/10/02 12:04:02;;;;;;;3.13;2.10;;;17.40;1.00;;;;;;5140231;27;20451;-58
2021/10/02 12:06:30;;;;;;;3.13;2.20;;;17.40;1.00;;;;;;5140699;27;20457;-52
2021/10/02 12:08:58;;;;;;;2.90;2.60;;;17.50;1.00;;;;;;5140570;27;20455;-56
2021/10/02 12:11:25;;;;;;;7.93;2.37;;;17.60;1.00;;;;;;5136903;27;20521;-56
2021/10/02 12:13:54;;;;;;;3.63;2.23;;;18.10;1.00;;;;;;5139955;27;20905;-55
2021/10/02 12:16:23;;;;;;;3.00;2.70;;;18.30;1.00;;;;;;5139933;27;20546;-54
2021/10/02 12:19:00;;;;;;;3.00;2.70;;;18.20;1.00;;;;;;5140178;27;20520;-57
2021/10/02 12:21:37;;;;;;;2.27;2.07;;;18.20;1.00;;;;;;5139980;27;20472;-57
2021/10/02 12:24:07;;;;;;;2.43;2.23;;;18.30;1.00;;;;;;5140470;27;20462;-54
2021/10/02 12:26:41;;;;;;;2.30;2.10;;;18.00;1.00;;;;;;5140082;27;20459;-55
2021/10/02 12:29:13;;;;;;;3.13;2.17;;;17.80;1.00;;;;;;5139505;27;20811;-55
2021/10/02 12:31:47;;;;;;;2.63;1.80;;;18.00;1.00;;;;;;5139780;27;20503;-56
2021/10/02 12:34:16;;;;;;;2.63;2.43;;;18.20;1.00;;;;;;5139608;27;20466;-57
2021/10/02 12:36:49;;;;;;;2.63;2.40;;;18.20;1.00;;;;;;5139313;27;20458;-55
2021/10/02 12:39:18;;;;;;;2.97;2.70;;;18.20;1.00;;;;;;5139649;27;20466;-49
2021/10/02 12:41:49;;;;;;;3.90;1.80;;;18.00;1.00;;;;;;5140034;27;20507;-53
2021/10/02 12:44:25;;;;;;;3.90;2.83;;;18.00;1.00;;;;;;5139867;27;20461;-55
2021/10/02 12:46:56;;;;;;;2.60;2.40;;;17.80;1.00;;;;;;5137494;27;20510;-57
2021/10/02 12:49:27;;;;;;;2.80;2.60;;;17.60;1.00;;;;;;5136653;27;20455;-57
2021/10/02 12:51:56;;;;;;;3.03;2.73;;;17.50;1.00;;;;;;5137430;27;20499;-55
2021/10/02 12:54:28;;;;;;;2.83;2.63;;;17.40;1.00;;;;;;5134529;27;20512;-55
2021/10/02 12:57:00;;;;;;;2.70;2.50;;;17.20;1.00;;;;;;5127722;27;20558;-54
2021/10/02 12:59:46;;;;;;;2.67;2.47;;;17.10;1.00;;;;;;5135360;27;20510;-58
2021/10/02 13:02:17;;;;;;;3.20;2.60;;;16.90;1.00;;;;;;5134645;27;20482;-55
2021/10/02 13:04:44;;;;;;;3.03;2.73;;;16.80;1.00;;;;;;5132924;27;20455;-56
2021/10/02 13:07:25;;;;;;;3.50;2.37;;;16.70;1.00;;;;;;5135058;27;20452;-57
2021/10/02 13:10:09;;;;;;;3.20;2.90;;;16.60;1.00;;;;;;5128049;27;20541;-56
2021/10/02 13:12:38;;;;;;;2.63;2.40;;;16.70;1.00;;;;;;5138939;27;20493;-56
2021/10/02 13:15:07;;;;;;;2.70;2.50;;;16.70;1.00;;;;;;5139075;27;20902;-58
2021/10/02 13:17:35;;;;;;;2.77;2.57;;;16.70;1.00;;;;;;5138438;27;21020;-51
2021/10/02 13:20:17;;;;;;;3.37;2.40;;;16.80;1.00;;;;;;5138871;27;20459;-51
2021/10/02 13:22:49;;;;;;;2.50;2.30;;;17.00;1.00;;;;;;5138584;27;20462;-58
2021/10/02 13:25:23;;;;;;;2.60;2.40;;;17.10;1.00;;;;;;5138373;27;20459;-51
2021/10/02 13:27:55;;;;;;;3.43;3.13;;;17.10;1.00;;;;;;5130782;27;20455;-50
2021/10/02 13:30:24;;;;;;;3.43;2.60;;;17.30;1.00;;;;;;5136006;27;20485;-50
2021/10/02 13:33:00;;;;;;;2.90;2.60;;;17.30;1.00;;;;;;5138734;27;20463;-49
2021/10/02 13:35:29;;;;;;;3.00;2.80;;;17.20;1.00;;;;;;5136424;27;20775;-51
2021/10/02 13:37:58;;;;;;;3.00;2.33;;;17.10;1.00;;;;;;5138649;27;20924;-50
2021/10/02 13:40:28;;;;;;;2.67;2.47;;;17.10;1.00;;;;;;5135414;27;20524;-56
2021/10/02 13:42:56;;;;;;;3.57;2.97;;;17.10;1.00;;;;;;5137394;27;20866;-56
2021/10/02 13:45:28;;;;;;;3.20;2.90;;;17.20;1.00;;;;;;5134326;27;20459;-54
2021/10/02 13:48:03;;;;;;;2.67;2.47;;;17.20;1.00;;;;;;5137258;27;20493;-53
2021/10/02 13:50:32;;;;;;;2.87;2.37;;;17.10;1.00;;;;;;5118719;28;20513;-55